createdAt,value
2018-12-12T00:02:24.475Z,10.13
2018-12-12T00:04:55.233Z,14.87
2018-12-12T00:07:23.556Z,11.97
2018-12-12T00:09:51.669Z,12.20
2018-12-12T00:12:19.935Z,8.30
2018-12-12T00:14:49.083Z,14.60
2018-12-12T00:17:17.309Z,10.67
2018-12-12T00:19:45.722Z,12.37
2018-12-12T00:22:13.917Z,12.43
2018-12-12T00:24:42.265Z,14.20
2018-12-12T00:27:10.561Z,10.60
2018-12-12T00:29:38.699Z,13.23
2018-12-12T00:32:07.248Z,11.07
2018-12-12T00:34:35.549Z,10.90
2018-12-12T00:37:03.815Z,14.67
2018-12-12T00:39:32.108Z,13.63
2018-12-12T00:42:00.319Z,9.10
2018-12-12T00:44:28.561Z,13.73
2018-12-12T00:46:56.779Z,13.00
2018-12-12T00:49:25.133Z,10.37
2018-12-12T00:51:53.453Z,11.37
2018-12-12T00:54:21.687Z,10.43
2018-12-12T00:56:49.890Z,12.80
2018-12-12T00:59:18.454Z,13.37
2018-12-12T01:01:46.663Z,10.03
2018-12-12T01:04:14.863Z,10.80
2018-12-12T01:06:43.033Z,8.07
2018-12-12T01:09:11.409Z,11.67
2018-12-12T01:12:01.537Z,12.17
2018-12-12T01:14:29.746Z,10.93
2018-12-12T01:16:57.885Z,10.77
2018-12-12T01:19:26.066Z,11.37
2018-12-12T01:21:54.141Z,13.63
2018-12-12T01:24:22.375Z,8.93
2018-12-12T01:26:50.548Z,14.03
2018-12-12T01:29:18.657Z,9.63
2018-12-12T01:31:46.843Z,11.33
2018-12-12T01:34:15.056Z,11.43
2018-12-12T01:36:43.234Z,11.90
2018-12-12T01:39:11.444Z,9.13
2018-12-12T01:41:39.557Z,13.67
2018-12-12T01:44:07.934Z,8.97
2018-12-12T01:46:36.163Z,9.33
2018-12-12T01:49:04.386Z,10.10
2018-12-12T01:51:32.526Z,10.67
2018-12-12T01:54:00.797Z,12.17
2018-12-12T01:56:29.039Z,13.60
2018-12-12T02:01:53.621Z,12.00
2018-12-12T02:04:22.094Z,13.37
2018-12-12T02:06:54.099Z,15.13
2018-12-12T02:09:34.485Z,12.47
2018-12-12T02:12:03.182Z,14.37
2018-12-12T02:14:31.409Z,10.27
2018-12-12T02:16:59.699Z,13.77
2018-12-12T02:19:27.921Z,13.20
2018-12-12T02:21:56.111Z,10.33
2018-12-12T02:24:24.400Z,13.17
2018-12-12T02:26:52.827Z,13.87
2018-12-12T02:29:21.097Z,12.03
2018-12-12T02:31:49.284Z,9.83
2018-12-12T02:34:17.643Z,10.77
2018-12-12T02:36:47.005Z,16.73
2018-12-12T02:39:15.263Z,10.83
2018-12-12T02:41:43.606Z,12.80
2018-12-12T02:44:11.814Z,13.60
2018-12-12T02:46:39.976Z,8.87
2018-12-12T02:49:08.176Z,13.37
2018-12-12T02:51:36.361Z,11.23
2018-12-12T02:54:04.622Z,12.50
2018-12-12T02:56:32.895Z,11.83
2018-12-12T02:59:01.274Z,13.77
2018-12-12T03:01:29.508Z,12.87
2018-12-12T03:03:57.738Z,11.50
2018-12-12T03:06:26.102Z,7.73
2018-12-12T03:08:54.297Z,12.53
2018-12-12T03:11:23.923Z,6.77
2018-12-12T03:13:52.725Z,10.03
2018-12-12T03:16:21.377Z,9.63
2018-12-12T03:18:49.583Z,9.03
2018-12-12T03:21:18.035Z,11.23
2018-12-12T03:23:46.247Z,11.53
2018-12-12T03:26:14.418Z,10.67
2018-12-12T03:28:42.597Z,11.47
2018-12-12T03:31:11.100Z,7.57
2018-12-12T03:33:39.248Z,10.77
2018-12-12T03:36:07.362Z,10.03
2018-12-12T03:38:35.542Z,10.97
2018-12-12T03:41:03.775Z,13.00
2018-12-12T03:43:31.866Z,13.00
2018-12-12T03:45:59.990Z,8.20
2018-12-12T03:48:28.167Z,9.30
2018-12-12T03:50:56.419Z,9.20
2018-12-12T03:53:24.570Z,9.53
2018-12-12T03:55:52.760Z,9.90
2018-12-12T03:58:20.950Z,12.37
2018-12-12T04:00:49.150Z,12.83
2018-12-12T04:03:17.343Z,10.93
2018-12-12T04:05:45.738Z,13.47
2018-12-12T04:08:14.345Z,12.20
2018-12-12T04:10:42.560Z,14.97
2018-12-12T04:13:10.671Z,13.07
2018-12-12T04:15:38.870Z,13.87
2018-12-12T04:18:06.963Z,14.20
2018-12-12T04:20:35.117Z,10.30
2018-12-12T04:23:04.691Z,13.73
2018-12-12T04:25:33.032Z,10.03
2018-12-12T04:28:01.120Z,11.27
2018-12-12T04:30:29.243Z,14.20
2018-12-12T04:32:57.363Z,13.03
2018-12-12T04:35:25.504Z,10.47
2018-12-12T04:37:53.668Z,12.53
2018-12-12T04:40:21.792Z,13.67
2018-12-12T04:42:50.089Z,10.00
2018-12-12T04:45:18.297Z,10.23
2018-12-12T04:47:46.417Z,10.40
2018-12-12T04:50:14.508Z,11.60
2018-12-12T04:52:42.658Z,15.10
2018-12-12T04:55:10.837Z,10.90
2018-12-12T04:57:38.972Z,13.97
2018-12-12T05:00:07.115Z,12.67
2018-12-12T05:02:35.436Z,8.80
2018-12-12T05:05:03.593Z,13.50
2018-12-12T05:07:31.698Z,13.10
2018-12-12T05:10:00.027Z,11.53
2018-12-12T05:12:29.141Z,9.43
2018-12-12T05:14:57.345Z,14.33
2018-12-12T05:17:25.482Z,11.07
2018-12-12T05:19:53.577Z,13.80
2018-12-12T05:22:21.848Z,15.20
2018-12-12T05:24:50.046Z,11.10
2018-12-12T05:27:18.222Z,13.67
2018-12-12T05:29:46.361Z,13.50
2018-12-12T05:32:14.536Z,11.67
2018-12-12T05:34:42.653Z,12.23
2018-12-12T05:37:10.794Z,15.03
2018-12-12T05:39:47.107Z,15.90
2018-12-12T05:42:15.429Z,10.70
2018-12-12T05:44:43.573Z,12.87
2018-12-12T05:47:11.754Z,10.93
2018-12-12T05:49:40.626Z,16.27
2018-12-12T05:52:09.574Z,11.83
2018-12-12T05:57:33.872Z,18.13
2018-12-12T06:00:02.450Z,13.10
2018-12-12T06:05:16.932Z,12.87
2018-12-12T06:07:45.226Z,21.27
2018-12-12T06:10:13.414Z,15.97
2018-12-12T06:12:41.538Z,18.40
2018-12-12T06:15:09.714Z,16.03
2018-12-12T06:17:37.911Z,14.73
2018-12-12T06:20:06.598Z,18.33
2018-12-12T06:22:37.851Z,13.43
2018-12-12T06:25:05.102Z,13.83
2018-12-12T06:27:33.302Z,14.77
2018-12-12T06:30:01.539Z,16.93
2018-12-12T06:32:29.722Z,18.33
2018-12-12T06:34:58.031Z,15.97
2018-12-12T06:37:42.886Z,13.83
2018-12-12T06:40:14.838Z,17.70
2018-12-12T06:42:42.954Z,15.20
2018-12-12T06:45:11.419Z,14.97
2018-12-12T06:47:40.550Z,17.80
2018-12-12T06:50:22.830Z,13.07
2018-12-12T06:52:50.997Z,17.37
2018-12-12T06:55:19.271Z,18.20
2018-12-12T06:57:47.443Z,16.60
2018-12-12T07:00:15.587Z,19.47
2018-12-12T07:02:43.770Z,22.90
2018-12-12T07:05:15.548Z,19.87
2018-12-12T07:10:50.827Z,18.43
2018-12-12T07:13:18.970Z,15.60
2018-12-12T07:16:03.790Z,19.30
2018-12-12T07:18:37.974Z,17.43
2018-12-12T07:21:14.157Z,24.00
2018-12-12T07:23:50.174Z,18.90
2018-12-12T07:29:30.248Z,19.37
2018-12-12T07:35:14.048Z,17.53
2018-12-12T07:37:44.575Z,14.00
2018-12-12T07:40:24.635Z,20.27
2018-12-12T07:43:05.911Z,21.67
2018-12-12T07:45:41.361Z,22.87
2018-12-12T07:48:16.484Z,19.27
2018-12-12T07:50:52.907Z,32.90
2018-12-12T07:56:19.152Z,24.77
2018-12-12T07:58:50.549Z,24.10
2018-12-12T08:01:31.219Z,32.60
2018-12-12T08:04:09.598Z,26.50
2018-12-12T08:06:49.541Z,30.27
2018-12-12T08:09:24.374Z,25.40
2018-12-12T08:11:58.632Z,23.47
2018-12-12T08:14:36.953Z,31.63
2018-12-12T08:20:02.543Z,37.37
2018-12-12T08:22:37.269Z,29.07
2018-12-12T08:25:13.433Z,29.33
2018-12-12T08:27:47.636Z,21.13
2018-12-12T08:36:08.046Z,23.33
2018-12-12T08:38:43.284Z,23.63
2018-12-12T08:41:11.427Z,29.23
2018-12-12T08:43:39.562Z,25.30
2018-12-12T08:46:07.916Z,26.17
2018-12-12T08:48:36.243Z,27.50
2018-12-12T08:51:04.363Z,25.73
2018-12-12T08:53:32.489Z,25.57
2018-12-12T08:56:00.609Z,26.13
2018-12-12T08:58:28.733Z,20.10
2018-12-12T09:00:56.881Z,23.43
2018-12-12T09:03:25.067Z,24.83
2018-12-12T09:05:53.242Z,24.47
2018-12-12T09:08:21.590Z,23.90
2018-12-12T09:10:49.858Z,26.53
2018-12-12T09:13:18.078Z,24.63
2018-12-12T09:15:46.249Z,29.73
2018-12-12T09:18:14.350Z,31.50
2018-12-12T09:20:42.499Z,27.33
2018-12-12T09:23:10.622Z,29.53
2018-12-12T09:25:38.847Z,18.03
2018-12-12T09:28:06.992Z,24.27
2018-12-12T09:30:35.110Z,26.07
2018-12-12T09:33:03.248Z,28.33
2018-12-12T09:35:31.399Z,26.50
2018-12-12T09:37:59.486Z,23.23
2018-12-12T09:40:27.692Z,25.97
2018-12-12T09:42:55.943Z,30.77
2018-12-12T09:45:24.112Z,22.63
2018-12-12T09:47:52.353Z,28.17
2018-12-12T09:50:20.809Z,26.10
2018-12-12T09:52:48.933Z,23.07
2018-12-12T09:55:17.133Z,27.10
2018-12-12T09:57:45.315Z,28.70
2018-12-12T10:00:13.454Z,28.03
2018-12-12T10:02:41.673Z,23.63
2018-12-12T10:05:09.829Z,24.90
2018-12-12T10:07:38.006Z,27.67
2018-12-12T10:10:06.386Z,26.87
2018-12-12T10:12:34.523Z,29.63
2018-12-12T10:15:02.717Z,33.97
2018-12-12T10:17:30.900Z,22.90
2018-12-12T10:19:59.182Z,27.07
2018-12-12T10:22:27.338Z,31.70
2018-12-12T10:24:55.464Z,26.77
2018-12-12T10:27:23.624Z,26.13
2018-12-12T10:29:51.762Z,20.87
2018-12-12T10:32:20.264Z,32.60
2018-12-12T10:34:48.494Z,27.57
2018-12-12T10:37:16.642Z,25.60
2018-12-12T10:39:44.757Z,28.40
2018-12-12T10:42:13.014Z,24.90
2018-12-12T10:44:41.612Z,27.30
2018-12-12T10:47:09.756Z,29.97
2018-12-12T10:49:37.946Z,28.83
2018-12-12T10:52:06.051Z,35.03
2018-12-12T10:54:34.225Z,30.53
2018-12-12T10:57:02.592Z,33.73
2018-12-12T10:59:30.718Z,29.43
2018-12-12T11:02:04.326Z,26.90
2018-12-12T11:04:32.471Z,27.50
2018-12-12T11:07:00.644Z,25.97
2018-12-12T11:09:28.781Z,26.90
2018-12-12T11:11:56.892Z,31.77
2018-12-12T11:14:25.036Z,27.10
2018-12-12T11:16:53.562Z,32.07
2018-12-12T11:19:30.782Z,24.97
2018-12-12T11:22:11.845Z,28.93
2018-12-12T11:27:34.719Z,24.37
2018-12-12T11:30:10.666Z,30.50
2018-12-12T11:35:49.351Z,22.83
2018-12-12T11:38:29.669Z,22.20
2018-12-12T11:41:13.826Z,25.27
2018-12-12T11:43:54.015Z,22.77
2018-12-12T11:46:32.005Z,19.70
2018-12-12T11:49:12.487Z,26.00
2018-12-12T11:51:50.595Z,28.27
2018-12-12T11:54:31.030Z,20.80
2018-12-12T12:00:05.337Z,25.90
2018-12-12T12:02:43.854Z,19.80
2018-12-12T12:05:24.291Z,19.97
2018-12-12T12:08:02.096Z,23.40
2018-12-12T12:10:38.004Z,23.10
2018-12-12T12:13:16.891Z,20.90
2018-12-12T12:15:55.406Z,18.90
2018-12-12T12:18:30.720Z,22.90
2018-12-12T12:21:07.497Z,23.50
2018-12-12T12:23:47.964Z,20.80
2018-12-12T12:26:27.273Z,17.87
2018-12-12T12:29:15.356Z,16.30
2018-12-12T12:31:55.836Z,14.37
2018-12-12T12:34:33.993Z,15.27
2018-12-12T12:37:10.503Z,18.17
2018-12-12T12:39:48.742Z,16.40
2018-12-12T12:42:28.970Z,15.37
2018-12-12T12:45:07.895Z,15.63
2018-12-12T12:47:49.007Z,15.97
2018-12-12T12:50:33.366Z,19.17
2018-12-12T12:53:12.460Z,15.77
2018-12-12T12:55:53.317Z,15.00
2018-12-12T12:58:29.318Z,13.93
2018-12-12T13:01:13.828Z,12.47
2018-12-12T13:03:42.319Z,15.67
2018-12-12T13:06:10.925Z,14.53
2018-12-12T13:08:53.468Z,13.03
2018-12-12T13:11:33.835Z,17.83
2018-12-12T13:34:40.851Z,11.47
2018-12-12T13:37:21.987Z,15.97
2018-12-12T13:42:36.295Z,19.50
2018-12-12T13:45:18.170Z,13.43
2018-12-12T13:47:53.184Z,11.40
2018-12-12T13:50:32.385Z,18.60
2018-12-12T13:53:16.410Z,15.43
2018-12-12T13:55:56.601Z,15.40
2018-12-12T13:58:35.508Z,17.33
2018-12-12T14:01:20.154Z,14.40
2018-12-12T14:06:56.898Z,16.30
2018-12-12T14:09:34.050Z,14.73
2018-12-12T14:15:11.855Z,14.37
2018-12-12T14:17:52.280Z,17.67
2018-12-12T14:20:28.281Z,12.90
2018-12-12T14:23:04.757Z,16.80
2018-12-12T14:25:53.125Z,14.17
2018-12-12T14:28:28.581Z,16.73
2018-12-12T14:31:04.743Z,19.43
2018-12-12T14:33:40.559Z,15.77
2018-12-12T14:36:16.993Z,16.53
2018-12-12T14:38:53.291Z,21.60
2018-12-12T14:41:29.729Z,15.97
2018-12-12T14:44:01.915Z,20.97
2018-12-12T14:46:38.431Z,17.70
2018-12-12T14:49:15.777Z,18.93
2018-12-12T14:51:52.941Z,17.23
2018-12-12T14:54:27.153Z,15.07
2018-12-12T14:56:55.792Z,18.63
2018-12-12T14:59:25.137Z,17.53
2018-12-12T15:01:56.136Z,20.13
2018-12-12T15:04:35.874Z,17.57
2018-12-12T15:07:01.006Z,18.23
2018-12-12T15:12:37.035Z,16.53
2018-12-12T15:18:07.450Z,18.93
2018-12-12T15:20:47.556Z,18.30
2018-12-12T15:23:31.972Z,18.20
2018-12-12T15:26:11.216Z,17.70
2018-12-12T15:28:43.085Z,20.67
2018-12-12T15:31:23.233Z,18.87
2018-12-12T15:34:03.571Z,18.50
2018-12-12T15:36:43.033Z,19.93
2018-12-12T16:02:21.248Z,13.53
2018-12-12T16:22:28.697Z,12.40
2018-12-12T16:31:08.240Z,12.57
2018-12-12T16:33:37.277Z,13.10
2018-12-12T16:36:09.209Z,13.10
2018-12-12T16:38:47.807Z,9.67
2018-12-12T16:44:28.780Z,7.63
2018-12-12T16:47:06.268Z,9.00
2018-12-12T16:52:33.981Z,9.97
2018-12-12T16:55:17.461Z,8.93
2018-12-12T17:00:48.425Z,7.53
2018-12-12T17:03:26.839Z,8.30
2018-12-12T17:17:48.621Z,11.70
2018-12-12T17:20:31.092Z,11.50
2018-12-12T21:18:11.740Z,18.20
2018-12-12T22:13:39.489Z,19.20
2018-12-12T22:22:09.588Z,19.77
2018-12-12T22:27:48.496Z,24.83
2018-12-12T22:45:11.306Z,19.77
2018-12-12T22:56:17.834Z,22.97
2018-12-12T23:01:48.270Z,19.93
2018-12-12T23:04:24.308Z,23.37
2018-12-12T23:07:01.621Z,22.93
2018-12-12T23:12:37.985Z,21.23
2018-12-12T23:15:16.360Z,23.53
2018-12-12T23:17:54.478Z,23.50
2018-12-12T23:26:25.049Z,21.37
2018-12-12T23:29:07.336Z,24.83
2018-12-12T23:31:46.383Z,21.47
2018-12-12T23:34:22.819Z,25.00
2018-12-12T23:42:52.068Z,23.30
2018-12-12T23:45:36.354Z,21.03
2018-12-12T23:48:16.681Z,22.10
2018-12-12T23:56:33.109Z,21.13
2018-12-12T23:59:11.342Z,23.30
